KPAO

Details ICAO KPAO (PAO)
Name Palo Alto
Region United States
Timezone America/Los_Angeles (UTC-8.0)
Plans Departing 54
Arriving 27
Stats Elevation 4 ft / 1 m (AMSL)
Location 37.460889° -122.114823°
Runways 1
Magnetic Variation 13.389° E
Sunrise 2017-12-18 15:19:13 UTC / 2017-12-18 07:19:13 Local
Sunset 2017-12-19 00:53:57 UTC / 2017-12-18 16:53:57 Local
Advertisement - Login to hide

Runways

ID Width Length Bearing (true) Bearing (mag) Surface Threshold Offset Overrun Length
31 75 ft / 23 m 2,659 ft / 810 m 321.81° 308.42° Asphalt 213 ft / 65 m 0 ft / 0 m
XXX 75 ft / 23 m 2,659 ft / 810 m 141.80° 128.41° Asphalt 0 ft / 0 m 197 ft / 60 m

Map

Weather


0- 5 10 15 20 25 30 35+ Temperature / ° C

Clouds and Precipitation
Forecast for 2017-12-18 18:00 UTC. Updated 2 hours ago

Ground ~20,000 ft ~40,000 ft Winds

METAR

KPAO 181447Z 00000KT 10SM SKC 02/00 A3020

TAF

Not found

Frequencies

Recorded 135.27 MHz ATIS
Tower 118.60 MHz Tower
Ground 125.00 MHz Ground
Approach 121.30 MHz NORCAL APP/DEP
Warning: Do not use this data for real-world aviation or navigation. No guarantee of current accuracy is given.